Kona International At Keahole Airport Kailua/Kona US
ICAO: PHKO
IATA: KOA
Category: Medium
Scheduled Services:

Elevation: 47 ft
TransAlt. 18000 ft.

Airport Communications:
ATIS:127.4
CLNC DEL:121.9
HONOLULU CNTR:126
CTAF:120.3
HONOLULU:123.6
TWR:120.3

PHKO Zoom In..

Runways:

(A) RW 17 length 11000 ft width 150 ft
ILS 109.70 / hdg 174

(B) RW 35 length 11000 ft width 150 ft
---- / hdg 354

Location; PHKO
Day. 17 / Time. 06.53 Zulu
* Altimeter: 29.96
* Temperature: 27° c. 80.6°f.
* Wind from: 030° Speed 12 kn.
Dewpoint: 18° c.
Visibility: 10 Statute Miles.
Clouds: Scattered 5500 ft.
Conditions: Haze.

PHKO 170653Z 03012KT 10SM HZ SCT055 27/18 A2996 RMK AO2 SLP147 T02720178


Wind From 030°
Speed 12 kn.

 
 
jpsmedia.com for Web Design worldairports.se 2018   terms of use